createdAt,value
2018-06-24T00:01:43.729Z,12
2018-06-24T00:07:12.932Z,12
2018-06-24T00:12:41.137Z,12.1
2018-06-24T00:18:09.373Z,12.1
2018-06-24T00:23:38.644Z,12.1
2018-06-24T00:29:07.846Z,12
2018-06-24T00:34:36.005Z,12
2018-06-24T00:40:04.240Z,12
2018-06-24T00:45:32.401Z,12
2018-06-24T00:51:01.529Z,12
2018-06-24T00:56:29.819Z,11.9
2018-06-24T01:01:57.922Z,11.9
2018-06-24T01:07:26.149Z,11.9
2018-06-24T01:12:55.411Z,11.9
2018-06-24T01:18:23.752Z,11.9
2018-06-24T01:23:51.705Z,11.9
2018-06-24T01:29:20.960Z,11.8
2018-06-24T01:34:50.105Z,11.8
2018-06-24T01:40:19.403Z,11.8
2018-06-24T01:45:48.547Z,11.9
2018-06-24T01:51:17.780Z,11.9
2018-06-24T01:56:45.844Z,11.9
2018-06-24T02:02:14.099Z,11.9
2018-06-24T02:07:42.238Z,11.9
2018-06-24T02:13:10.437Z,11.9
2018-06-24T02:18:39.630Z,11.9
2018-06-24T02:24:08.848Z,11.9
2018-06-24T02:29:38.017Z,11.9
2018-06-24T02:35:06.233Z,11.9
2018-06-24T02:40:34.439Z,12
2018-06-24T02:46:03.611Z,12
2018-06-24T02:51:31.848Z,12
2018-06-24T02:57:00.078Z,12
2018-06-24T03:02:29.216Z,12
2018-06-24T03:07:58.543Z,11.9
2018-06-24T03:13:27.896Z,11.9
2018-06-24T03:18:56.864Z,11.9
2018-06-24T03:24:24.956Z,11.9
2018-06-24T03:29:54.139Z,11.9
2018-06-24T03:35:22.363Z,11.9
2018-06-24T03:40:51.628Z,11.9
2018-06-24T03:46:19.816Z,11.9
2018-06-24T03:51:48.221Z,12
2018-06-24T03:57:16.140Z,12
2018-06-24T04:02:44.323Z,12
2018-06-24T04:08:13.243Z,12
2018-06-24T04:13:40.692Z,12
2018-06-24T04:19:08.965Z,12
2018-06-24T04:24:37.116Z,12.1
2018-06-24T04:30:05.302Z,12.1
2018-06-24T04:35:34.477Z,12.2
2018-06-24T04:41:03.751Z,12.2
2018-06-24T04:46:31.992Z,12.3
2018-06-24T04:52:00.258Z,12.4
2018-06-24T04:57:29.740Z,12.4
2018-06-24T05:02:57.905Z,12.4
2018-06-24T05:08:25.995Z,12.4
2018-06-24T05:13:54.231Z,12.4
2018-06-24T05:19:22.449Z,12.5
2018-06-24T05:24:51.557Z,12.5
2018-06-24T05:30:20.848Z,12.6
2018-06-24T05:35:50.145Z,12.6
2018-06-24T05:41:19.363Z,12.7
2018-06-24T05:46:48.820Z,12.7
2018-06-24T05:52:18.114Z,12.7
2018-06-24T05:57:47.085Z,12.8
2018-06-24T06:03:15.358Z,12.8
2018-06-24T06:08:44.652Z,12.8
2018-06-24T06:14:12.867Z,12.8
2018-06-24T06:19:41.171Z,12.9
2018-06-24T06:25:09.523Z,13
2018-06-24T06:30:38.202Z,13.2
2018-06-24T06:36:06.080Z,13.2
2018-06-24T06:41:35.393Z,13.3
2018-06-24T06:47:03.720Z,13.2
2018-06-24T06:52:32.058Z,13.2
2018-06-24T06:58:01.362Z,13.3
2018-06-24T07:03:30.673Z,13.4
2018-06-24T07:08:59.036Z,13.5
2018-06-24T07:14:27.307Z,13.5
2018-06-24T07:19:55.722Z,13.5
2018-06-24T07:25:23.972Z,13.5
2018-06-24T07:30:53.279Z,13.5
2018-06-24T07:36:22.614Z,13.5
2018-06-24T07:41:51.940Z,13.5
2018-06-24T07:47:20.276Z,13.6
2018-06-24T07:52:49.572Z,13.6
2018-06-24T07:58:18.960Z,13.7
2018-06-24T08:03:48.290Z,13.7
2018-06-24T08:09:16.638Z,13.9
2018-06-24T08:14:45.159Z,14.1
2018-06-24T08:20:13.444Z,14.1
2018-06-24T08:25:41.869Z,14
2018-06-24T08:31:10.307Z,14.1
2018-06-24T08:36:39.653Z,14.3
2018-06-24T08:42:09.063Z,14.5
2018-06-24T08:47:37.650Z,14.5
2018-06-24T08:53:05.958Z,14.4
2018-06-24T08:58:34.571Z,14.3
2018-06-24T09:04:02.817Z,14.3
2018-06-24T09:09:31.330Z,14.2
2018-06-24T09:15:00.890Z,14.2
2018-06-24T09:20:30.268Z,14.2
2018-06-24T09:25:58.511Z,14.3
2018-06-24T09:31:27.920Z,14.4
2018-06-24T09:36:56.629Z,14.6
2018-06-24T09:42:25.855Z,14.8
2018-06-24T09:47:54.393Z,14.9
2018-06-24T09:53:22.865Z,14.9
2018-06-24T09:58:51.332Z,14.9
2018-06-24T10:04:19.836Z,14.9
2018-06-24T10:09:49.350Z,14.8
2018-06-24T10:15:18.780Z,14.6
2018-06-24T10:20:48.216Z,14.5
2018-06-24T10:26:17.719Z,14.6
2018-06-24T10:31:46.253Z,14.6
2018-06-24T10:37:14.604Z,14.4
2018-06-24T10:42:44.013Z,14.5
2018-06-24T10:48:12.493Z,14.6
2018-06-24T10:53:41.963Z,14.6
2018-06-24T10:59:10.639Z,14.6
2018-06-24T11:04:38.932Z,14.5
2018-06-24T11:10:07.384Z,14.5
2018-06-24T11:15:35.824Z,14.6
2018-06-24T11:21:04.379Z,14.7
2018-06-24T11:26:33.775Z,14.9
2018-06-24T11:32:02.256Z,15.1
2018-06-24T11:37:30.771Z,15.2
2018-06-24T11:42:59.318Z,15.2
2018-06-24T11:48:28.874Z,15.3
2018-06-24T11:53:57.360Z,15.4
2018-06-24T11:59:25.971Z,15.4
2018-06-24T12:04:54.519Z,15.4
2018-06-24T12:10:23.008Z,15.5
2018-06-24T12:15:52.559Z,15.6
2018-06-24T12:21:21.141Z,15.6
2018-06-24T12:26:50.693Z,15.6
2018-06-24T12:32:20.342Z,15.7
2018-06-24T12:37:48.882Z,16
2018-06-24T12:43:18.521Z,16.2
2018-06-24T12:48:47.119Z,16.2
2018-06-24T12:54:16.218Z,16.2
2018-06-24T12:59:45.728Z,16.4
2018-06-24T13:05:15.128Z,16.6
2018-06-24T13:10:44.699Z,16.7
2018-06-24T13:16:14.353Z,16.7
2018-06-24T13:21:44.000Z,16.6
2018-06-24T13:27:12.661Z,16.6
2018-06-24T13:32:42.263Z,16.5
2018-06-24T13:38:11.917Z,16.5
2018-06-24T13:43:41.599Z,16.5
2018-06-24T13:49:11.184Z,16.4
2018-06-24T13:54:40.788Z,16.5
2018-06-24T14:00:09.445Z,16.6
2018-06-24T14:05:38.250Z,16.7
2018-06-24T14:11:06.743Z,16.8
2018-06-24T14:16:36.434Z,16.8
2018-06-24T14:22:06.103Z,16.9
2018-06-24T14:27:35.825Z,16.9
2018-06-24T14:33:05.522Z,17
2018-06-24T14:38:34.217Z,17
2018-06-24T14:44:03.934Z,17
2018-06-24T14:49:32.580Z,17.1
2018-06-24T14:55:01.346Z,17.3
2018-06-24T15:00:30.151Z,17.3
2018-06-24T15:05:58.792Z,17.2
2018-06-24T15:11:27.415Z,16.9
2018-06-24T15:16:56.068Z,16.8
2018-06-24T15:22:24.740Z,16.8
2018-06-24T15:27:53.500Z,16.9
2018-06-24T15:33:22.202Z,17.1
2018-06-24T15:38:51.827Z,17.2
2018-06-24T15:44:21.535Z,17.2
2018-06-24T15:49:51.321Z,17.4
2018-06-24T15:55:21.295Z,17.5
2018-06-24T16:00:49.819Z,17.4
2018-06-24T16:06:18.594Z,17.4
2018-06-24T16:11:48.286Z,17.4
2018-06-24T16:17:17.035Z,17.4
2018-06-24T16:22:45.743Z,17.4
2018-06-24T16:28:15.565Z,17.3
2018-06-24T16:33:45.268Z,17.1
2018-06-24T16:39:13.940Z,17
2018-06-24T16:44:42.586Z,16.9
2018-06-24T16:50:12.278Z,16.9
2018-06-24T16:55:42.057Z,16.8
2018-06-24T17:01:10.609Z,16.7
2018-06-24T17:06:39.295Z,16.6
2018-06-24T17:12:08.937Z,16.6
2018-06-24T17:17:38.565Z,16.5
2018-06-24T17:17:39.404Z,16.5
2018-06-24T17:23:07.283Z,16.5
2018-06-24T17:23:08.395Z,16.5
2018-06-24T17:28:35.854Z,16.4
2018-06-24T17:28:37.517Z,16.4
2018-06-24T17:34:04.492Z,16.4
2018-06-24T17:39:33.306Z,16.3
2018-06-24T17:45:01.911Z,16.2
2018-06-24T17:50:31.454Z,16.2
2018-06-24T17:55:59.996Z,16.1
2018-06-24T18:01:30.610Z,16.1
2018-06-24T18:06:58.228Z,16
2018-06-24T18:12:26.791Z,15.9
2018-06-24T18:17:56.525Z,15.8
2018-06-24T18:23:25.991Z,15.7
2018-06-24T18:28:55.626Z,15.6
2018-06-24T18:34:25.167Z,15.5
2018-06-24T18:39:54.715Z,15.5
2018-06-24T18:45:24.284Z,15.4
2018-06-24T18:50:52.832Z,15.4
2018-06-24T18:56:21.442Z,15.3
2018-06-24T19:01:50.953Z,15.3
2018-06-24T19:07:19.479Z,15.2
2018-06-24T19:12:48.092Z,15.2
2018-06-24T19:18:17.615Z,15.1
2018-06-24T19:23:46.071Z,15.1
2018-06-24T19:29:14.610Z,15
2018-06-24T19:34:44.131Z,14.9
2018-06-24T19:40:12.630Z,14.9
2018-06-24T19:45:41.120Z,14.8
2018-06-24T19:51:09.660Z,14.7
2018-06-24T19:56:38.167Z,14.7
2018-06-24T20:02:06.585Z,14.6
2018-06-24T20:07:35.062Z,14.5
2018-06-24T20:13:03.496Z,14.5
2018-06-24T20:18:31.973Z,14.4
2018-06-24T20:24:00.509Z,14.4
2018-06-24T20:29:29.944Z,14.3
2018-06-24T20:34:58.351Z,14.3
2018-06-24T20:40:27.786Z,14.2
2018-06-24T20:45:57.395Z,14.2
2018-06-24T20:51:25.688Z,14.1
2018-06-24T20:56:54.100Z,14.1
2018-06-24T21:02:23.554Z,14.1
2018-06-24T21:07:51.958Z,14
2018-06-24T21:13:21.335Z,14
2018-06-24T21:18:50.739Z,13.9
2018-06-24T21:24:19.128Z,13.8
2018-06-24T21:29:48.462Z,13.8
2018-06-24T21:35:16.909Z,13.7
2018-06-24T21:40:46.251Z,13.7
2018-06-24T21:46:15.663Z,13.6
2018-06-24T21:51:43.945Z,13.6
2018-06-24T21:57:12.269Z,13.6
2018-06-24T22:02:40.697Z,13.5
2018-06-24T22:08:09.933Z,13.5
2018-06-24T22:13:38.281Z,13.4
2018-06-24T22:19:06.631Z,13.4
2018-06-24T22:24:34.925Z,13.3
2018-06-24T22:30:04.338Z,13.4
2018-06-24T22:35:33.574Z,13.4
2018-06-24T22:41:01.980Z,13.4
2018-06-24T22:46:30.291Z,13.4
2018-06-24T22:51:58.597Z,13.4
2018-06-24T22:57:27.085Z,13.3
2018-06-24T23:02:55.290Z,13.3
2018-06-24T23:08:23.778Z,13.3
2018-06-24T23:13:51.874Z,13.3
2018-06-24T23:19:20.233Z,13.3
2018-06-24T23:24:49.507Z,13.2
2018-06-24T23:30:18.829Z,13.2
2018-06-24T23:35:48.184Z,13.3
2018-06-24T23:41:16.465Z,13.3
2018-06-24T23:46:45.796Z,13.2
2018-06-24T23:52:14.073Z,13.2
2018-06-24T23:57:42.381Z,13.2
